Time;durP1;ratioP1;P1;durP2;ratioP2;P2;SDS_P1;SDS_P2;PMS_P1;PMS_P2;Temp;Humidity;BMP_temperature;BMP_pressure;BME280_temperature;BME280_humidity;BME280_pressure;Samples;Min_cycle;Max_cycle;Signal;HPM_P1;HPM_P2
2024/01/03 00:01:37;;;;;;;21.75;2.97;;;11.10;96.90;;;;;;4983923;28;20088;-83
2024/01/03 00:04:04;;;;;;;24.92;3.03;;;11.10;96.80;;;;;;4984609;28;20026;-86
2024/01/03 00:06:33;;;;;;;21.08;4.45;;;11.10;96.50;;;;;;5000497;28;20026;-86
2024/01/03 00:09:02;;;;;;;28.85;8.20;;;11.20;96.80;;;;;;4983921;28;20026;-86
2024/01/03 00:11:30;;;;;;;83.40;29.80;;;11.20;96.60;;;;;;4985050;28;20164;-86
2024/01/03 00:14:07;;;;;;;93.80;39.85;;;11.20;96.30;;;;;;4983583;28;20018;-86
2024/01/03 00:16:35;;;;;;;81.30;35.72;;;11.20;96.00;;;;;;4983994;28;20383;-86
2024/01/03 00:19:03;;;;;;;73.47;31.42;;;11.20;96.00;;;;;;4984268;28;20034;-86
2024/01/03 00:21:29;;;;;;;63.35;30.27;;;11.30;96.10;;;;;;4984319;28;20102;-88
2024/01/03 00:23:56;;;;;;;52.90;20.77;;;11.30;95.80;;;;;;4984735;28;20014;-87
2024/01/03 00:26:29;;;;;;;34.78;11.27;;;11.40;95.70;;;;;;4983186;28;20053;-87
2024/01/03 00:28:56;;;;;;;53.17;16.88;;;11.40;95.50;;;;;;4984482;28;20065;-87
2024/01/03 00:31:38;;;;;;;44.38;19.05;;;11.40;95.40;;;;;;4983603;28;20037;-86
2024/01/03 00:34:24;;;;;;;45.20;18.55;;;11.40;95.40;;;;;;4984313;28;20022;-86
2024/01/03 00:36:54;;;;;;;54.33;20.23;;;11.40;95.10;;;;;;4984365;28;20390;-87
2024/01/03 00:39:39;;;;;;;38.58;12.40;;;11.40;94.80;;;;;;4967188;28;20118;-86
2024/01/03 00:42:05;;;;;;;36.72;11.75;;;11.40;94.80;;;;;;4984481;28;20490;-87
2024/01/03 00:44:32;;;;;;;44.22;17.02;;;11.40;94.70;;;;;;4967942;28;20050;-87
2024/01/03 00:46:58;;;;;;;34.28;13.05;;;11.40;94.70;;;;;;4970561;28;20033;-87
2024/01/03 00:49:25;;;;;;;23.25;8.38;;;11.40;94.40;;;;;;4987597;28;20038;-86
2024/01/03 00:51:50;;;;;;;31.30;6.55;;;11.40;94.60;;;;;;4987487;28;20119;-86
2024/01/03 00:54:19;;;;;;;16.55;4.45;;;11.40;94.40;;;;;;4988388;28;20030;-86
2024/01/03 00:56:45;;;;;;;19.02;2.72;;;11.40;94.10;;;;;;4987004;28;20050;-86
2024/01/03 00:59:13;;;;;;;21.40;2.28;;;11.40;94.10;;;;;;4988387;28;20057;-87
2024/01/03 01:01:40;;;;;;;15.52;2.03;;;11.50;93.80;;;;;;4987178;28;20034;-87
2024/01/03 01:04:07;;;;;;;18.33;2.70;;;11.40;93.90;;;;;;4987777;28;20035;-86
2024/01/03 01:06:33;;;;;;;22.50;2.90;;;11.40;94.00;;;;;;4987389;28;20034;-86
2024/01/03 01:09:01;;;;;;;18.83;2.65;;;11.40;94.30;;;;;;4987325;28;20066;-85
2024/01/03 01:11:27;;;;;;;22.35;2.95;;;11.40;94.10;;;;;;4987755;28;20033;-85
2024/01/03 01:13:52;;;;;;;23.50;6.55;;;11.40;94.00;;;;;;4986253;28;20117;-85
2024/01/03 01:16:18;;;;;;;41.97;10.82;;;11.40;94.10;;;;;;4987983;28;20094;-85
2024/01/03 01:18:44;;;;;;;39.25;13.75;;;11.40;94.10;;;;;;4986609;28;20034;-85
2024/01/03 01:21:10;;;;;;;35.15;10.75;;;11.40;94.10;;;;;;4987695;28;20023;-85
2024/01/03 01:23:35;;;;;;;21.17;6.75;;;11.40;94.20;;;;;;4987626;28;20030;-85
2024/01/03 01:26:01;;;;;;;27.65;6.82;;;11.40;94.40;;;;;;4987136;28;20018;-85
2024/01/03 01:28:27;;;;;;;27.08;5.38;;;11.40;94.30;;;;;;4987234;28;20038;-84
2024/01/03 01:30:52;;;;;;;25.25;5.43;;;11.40;94.50;;;;;;4986524;28;20060;-84
2024/01/03 01:33:18;;;;;;;22.15;4.55;;;11.40;94.40;;;;;;4988089;28;20018;-84
2024/01/03 01:35:44;;;;;;;24.58;4.10;;;11.40;94.60;;;;;;5003616;28;20376;-86
2024/01/03 01:38:11;;;;;;;24.33;5.65;;;11.40;94.60;;;;;;4987512;28;20037;-84
2024/01/03 01:40:36;;;;;;;26.42;4.95;;;11.40;94.70;;;;;;4986362;28;20058;-85
2024/01/03 01:43:02;;;;;;;17.20;2.90;;;11.40;94.60;;;;;;5002962;28;20026;-85
2024/01/03 01:45:28;;;;;;;22.67;3.80;;;11.40;94.70;;;;;;4987410;28;20033;-84
2024/01/03 01:47:54;;;;;;;19.40;3.53;;;11.40;94.70;;;;;;4986519;28;20018;-85
2024/01/03 01:50:20;;;;;;;24.17;3.60;;;11.40;95.00;;;;;;4987455;28;20034;-84
2024/01/03 01:52:45;;;;;;;20.92;4.82;;;11.40;95.20;;;;;;4986198;28;20045;-84
2024/01/03 01:55:12;;;;;;;25.90;3.42;;;11.40;95.20;;;;;;4987819;28;20015;-86
2024/01/03 01:57:39;;;;;;;22.42;3.25;;;11.40;95.20;;;;;;4985835;28;20034;-85
2024/01/03 02:00:07;;;;;;;22.70;3.47;;;11.40;95.30;;;;;;4986861;28;20026;-85
2024/01/03 02:02:35;;;;;;;20.17;3.50;;;11.40;95.30;;;;;;4986971;28;20452;-85
2024/01/03 02:05:01;;;;;;;21.67;3.95;;;11.40;95.40;;;;;;4986336;28;20034;-85
2024/01/03 02:07:27;;;;;;;22.42;3.78;;;11.40;95.50;;;;;;5003317;28;20125;-85
2024/01/03 02:09:53;;;;;;;23.98;3.70;;;11.30;95.40;;;;;;4985944;28;20491;-85
2024/01/03 02:12:26;;;;;;;20.90;3.33;;;11.40;95.10;;;;;;4987086;28;20038;-85
2024/01/03 02:14:53;;;;;;;19.75;3.72;;;11.40;94.90;;;;;;4986456;28;20046;-84
2024/01/03 02:17:19;;;;;;;20.00;3.50;;;11.40;94.70;;;;;;4986284;28;20138;-86
2024/01/03 02:19:44;;;;;;;21.40;2.80;;;11.30;94.60;;;;;;4986448;28;20029;-86
2024/01/03 02:22:10;;;;;;;19.77;2.88;;;11.30;94.80;;;;;;4985801;28;20027;-86
2024/01/03 02:24:36;;;;;;;28.42;4.15;;;11.30;94.70;;;;;;4986837;28;20026;-85
2024/01/03 02:27:01;;;;;;;25.38;3.85;;;11.40;94.70;;;;;;4985824;28;20383;-85
2024/01/03 02:29:27;;;;;;;26.52;3.10;;;11.30;94.70;;;;;;5003676;28;20041;-86
2024/01/03 02:31:53;;;;;;;20.70;2.75;;;11.40;94.60;;;;;;4987875;28;20030;-85
2024/01/03 02:34:19;;;;;;;28.23;4.18;;;11.30;94.70;;;;;;4987326;28;20474;-85
2024/01/03 02:36:50;;;;;;;28.58;5.45;;;11.30;95.00;;;;;;4987258;28;20029;-85
2024/01/03 02:39:16;;;;;;;22.33;2.95;;;11.30;95.00;;;;;;5002456;28;21115;-86
2024/01/03 02:41:42;;;;;;;23.02;2.85;;;11.30;95.20;;;;;;4986129;28;20073;-86
2024/01/03 02:44:08;;;;;;;30.80;4.05;;;11.30;95.20;;;;;;4985347;28;20049;-86
2024/01/03 02:46:33;;;;;;;19.60;4.00;;;11.30;95.40;;;;;;4986326;28;20152;-86
2024/01/03 02:48:59;;;;;;;22.98;3.90;;;11.30;95.40;;;;;;5001393;28;20185;-86
2024/01/03 02:51:25;;;;;;;25.58;3.50;;;11.30;95.50;;;;;;4985692;28;20026;-85
2024/01/03 02:53:50;;;;;;;26.35;3.65;;;11.30;95.70;;;;;;4985811;28;20102;-85
2024/01/03 02:56:17;;;;;;;30.25;4.25;;;11.30;95.90;;;;;;4985284;28;20033;-85
2024/01/03 02:58:42;;;;;;;27.48;3.88;;;11.30;95.90;;;;;;4986185;28;20023;-84
2024/01/03 03:01:08;;;;;;;20.00;3.13;;;11.30;96.40;;;;;;4984879;28;20027;-84
2024/01/03 03:03:34;;;;;;;23.95;3.28;;;11.30;95.90;;;;;;4986086;28;20061;-85
2024/01/03 03:06:01;;;;;;;25.73;3.50;;;11.20;96.10;;;;;;4984697;28;20022;-86
2024/01/03 03:08:27;;;;;;;18.25;3.60;;;11.30;96.00;;;;;;4985787;28;20061;-87
2024/01/03 03:10:53;;;;;;;23.27;3.25;;;11.30;96.10;;;;;;4984082;28;20019;-86
2024/01/03 03:13:19;;;;;;;15.77;2.92;;;11.30;96.30;;;;;;4968517;28;20031;-86
2024/01/03 03:15:46;;;;;;;23.92;4.68;;;11.20;96.30;;;;;;4985488;28;20066;-86
2024/01/03 03:18:12;;;;;;;22.15;3.38;;;11.20;96.40;;;;;;4984909;28;20015;-85
2024/01/03 03:20:38;;;;;;;25.60;3.33;;;11.20;96.40;;;;;;4985711;28;20029;-84
2024/01/03 03:23:04;;;;;;;26.83;3.80;;;11.20;96.50;;;;;;4984369;28;20113;-85
2024/01/03 03:25:30;;;;;;;23.83;3.65;;;11.20;96.60;;;;;;4985484;28;20058;-86
2024/01/03 03:27:55;;;;;;;23.15;3.65;;;11.20;96.80;;;;;;4984686;28;20041;-86
2024/01/03 03:30:22;;;;;;;28.77;3.95;;;11.20;97.30;;;;;;4984784;28;20070;-86
2024/01/03 03:32:48;;;;;;;25.73;3.90;;;11.20;97.80;;;;;;4985250;28;20030;-86
2024/01/03 03:35:14;;;;;;;29.80;4.88;;;11.20;98.10;;;;;;4984292;28;20046;-86
2024/01/03 03:37:40;;;;;;;31.67;4.32;;;11.10;98.10;;;;;;4985695;28;20387;-86
2024/01/03 03:40:07;;;;;;;30.23;5.30;;;11.10;98.10;;;;;;4983552;28;20055;-87
2024/01/03 03:42:33;;;;;;;26.70;3.83;;;11.10;98.30;;;;;;4985348;28;20094;-86
2024/01/03 03:44:59;;;;;;;29.23;3.85;;;11.10;98.40;;;;;;4984340;28;20022;-86
2024/01/03 03:47:25;;;;;;;33.33;4.30;;;11.20;98.40;;;;;;4984657;28;20042;-85
2024/01/03 03:49:51;;;;;;;23.52;4.00;;;11.10;98.40;;;;;;5001921;28;20041;-85
2024/01/03 03:52:17;;;;;;;31.50;4.57;;;11.10;98.40;;;;;;4983924;28;20081;-84
2024/01/03 03:54:42;;;;;;;27.33;4.65;;;11.10;98.50;;;;;;4984552;28;20045;-84
2024/01/03 03:57:08;;;;;;;28.25;5.35;;;11.10;98.90;;;;;;4983850;28;20025;-84
2024/01/03 03:59:34;;;;;;;31.48;4.32;;;11.10;99.20;;;;;;4985181;28;20010;-85
2024/01/03 04:02:00;;;;;;;21.35;4.43;;;11.10;99.30;;;;;;4984130;28;20037;-85
2024/01/03 04:04:25;;;;;;;21.88;3.75;;;11.10;99.30;;;;;;4984793;28;20741;-86
2024/01/03 04:06:51;;;;;;;24.42;3.53;;;11.10;99.20;;;;;;4984456;28;20053;-85
2024/01/03 04:09:19;;;;;;;33.08;4.82;;;11.00;99.00;;;;;;4983738;28;20038;-85
2024/01/03 04:11:45;;;;;;;27.88;3.88;;;11.10;99.00;;;;;;4984973;28;20007;-85
2024/01/03 04:14:11;;;;;;;29.23;4.90;;;11.00;98.90;;;;;;4983060;28;20081;-87
2024/01/03 04:16:37;;;;;;;27.15;3.80;;;11.00;98.90;;;;;;5001154;28;20029;-87
2024/01/03 04:19:03;;;;;;;29.38;3.80;;;11.00;99.00;;;;;;4983745;28;20027;-87
2024/01/03 04:21:30;;;;;;;29.40;4.65;;;11.00;99.00;;;;;;4983880;28;20025;-86
2024/01/03 04:23:56;;;;;;;26.02;4.22;;;11.00;99.10;;;;;;4984210;28;20038;-87
2024/01/03 04:26:25;;;;;;;32.70;5.28;;;11.00;99.20;;;;;;4983733;28;20023;-85
2024/01/03 04:28:51;;;;;;;27.98;3.72;;;11.00;99.40;;;;;;4984496;28;20026;-85
2024/01/03 04:31:17;;;;;;;31.23;4.47;;;11.00;99.50;;;;;;4983852;28;20121;-85
2024/01/03 04:33:43;;;;;;;29.42;4.43;;;11.00;99.50;;;;;;4984514;28;20482;-85
2024/01/03 04:36:11;;;;;;;29.33;5.03;;;11.00;99.50;;;;;;4982533;28;20094;-87
2024/01/03 04:38:36;;;;;;;30.45;3.83;;;11.00;99.60;;;;;;4984394;28;20168;-87
2024/01/03 04:41:02;;;;;;;21.08;3.35;;;11.00;99.60;;;;;;5000973;28;20057;-87
2024/01/03 04:43:28;;;;;;;35.42;5.07;;;11.10;99.80;;;;;;4999828;28;20066;-87
2024/01/03 04:45:54;;;;;;;30.30;5.15;;;11.10;99.70;;;;;;4984408;28;20030;-87
2024/01/03 04:48:21;;;;;;;28.95;4.85;;;11.10;99.70;;;;;;4983578;28;20027;-87
2024/01/03 04:50:46;;;;;;;36.50;6.07;;;11.10;99.60;;;;;;4984658;28;20030;-87
2024/01/03 04:53:12;;;;;;;39.92;8.40;;;11.10;99.40;;;;;;4983022;28;20026;-87
2024/01/03 04:55:38;;;;;;;40.40;8.35;;;11.10;99.20;;;;;;4984345;28;20462;-87
2024/01/03 04:58:04;;;;;;;31.50;8.25;;;11.10;99.10;;;;;;4983882;28;20030;-87
2024/01/03 05:00:30;;;;;;;34.45;8.90;;;11.10;99.20;;;;;;4983924;28;20018;-86
2024/01/03 05:02:56;;;;;;;35.75;8.70;;;11.10;99.20;;;;;;4984122;28;20026;-86
2024/01/03 05:05:22;;;;;;;35.67;8.25;;;11.00;99.00;;;;;;4983343;28;20023;-89
2024/01/03 05:07:48;;;;;;;28.45;7.15;;;11.00;98.80;;;;;;4984468;28;20394;-87
2024/01/03 05:10:14;;;;;;;43.88;7.82;;;11.00;98.90;;;;;;4998989;28;20030;-86
2024/01/03 05:12:39;;;;;;;32.45;7.47;;;11.00;99.00;;;;;;4988975;28;20027;-86
2024/01/03 05:15:06;;;;;;;26.63;5.80;;;11.00;99.10;;;;;;4997217;28;20022;-86
2024/01/03 05:17:32;;;;;;;29.92;6.53;;;11.00;99.40;;;;;;5003051;28;20048;-86
2024/01/03 05:19:58;;;;;;;22.83;5.30;;;10.90;99.50;;;;;;5003070;28;20026;-85
2024/01/03 05:22:24;;;;;;;22.05;5.22;;;10.90;99.60;;;;;;5002517;28;20025;-86
2024/01/03 05:24:51;;;;;;;25.27;4.68;;;10.90;99.90;;;;;;5003496;28;20029;-84
2024/01/03 05:27:17;;;;;;;19.95;3.83;;;10.80;99.90;;;;;;5002315;28;20033;-83
2024/01/03 05:29:43;;;;;;;24.58;3.97;;;10.80;99.90;;;;;;5003831;28;20038;-84
2024/01/03 05:32:09;;;;;;;22.52;4.10;;;10.80;99.90;;;;;;5005403;28;20064;-85
2024/01/03 05:34:34;;;;;;;21.60;4.07;;;10.80;99.90;;;;;;5007513;28;20105;-85
2024/01/03 05:37:00;;;;;;;26.92;4.35;;;10.80;99.90;;;;;;5006875;28;20057;-85
2024/01/03 05:39:26;;;;;;;21.48;4.10;;;10.80;99.90;;;;;;5006324;28;20513;-85
2024/01/03 05:41:51;;;;;;;30.10;5.70;;;10.70;99.90;;;;;;5005990;28;20038;-85
2024/01/03 05:44:17;;;;;;;19.63;3.22;;;10.60;99.90;;;;;;5004644;28;20030;-85
2024/01/03 05:46:43;;;;;;;21.02;3.10;;;10.60;99.90;;;;;;5006368;28;20018;-85
2024/01/03 05:49:09;;;;;;;23.15;3.45;;;10.50;99.90;;;;;;5004314;28;20046;-85
2024/01/03 05:51:35;;;;;;;26.35;4.53;;;10.50;99.90;;;;;;5005558;28;20041;-86
2024/01/03 05:54:00;;;;;;;27.65;3.78;;;10.40;99.90;;;;;;5004783;28;20028;-85
2024/01/03 05:56:28;;;;;;;16.67;3.25;;;10.40;99.90;;;;;;5004521;28;20090;-85
2024/01/03 05:58:54;;;;;;;20.67;3.10;;;10.30;99.90;;;;;;5005545;28;20028;-85
2024/01/03 06:01:19;;;;;;;15.13;2.83;;;10.30;99.90;;;;;;5003988;28;20488;-85
2024/01/03 06:03:46;;;;;;;19.17;3.40;;;10.30;99.90;;;;;;5005688;28;20029;-85
2024/01/03 06:06:12;;;;;;;18.65;3.50;;;10.30;99.90;;;;;;5003859;28;20026;-85
2024/01/03 06:08:38;;;;;;;18.10;3.55;;;10.30;99.90;;;;;;5005082;28;20466;-86
2024/01/03 06:11:04;;;;;;;11.32;2.38;;;10.30;99.90;;;;;;5004645;28;20030;-84
2024/01/03 06:13:29;;;;;;;14.80;2.75;;;10.30;99.90;;;;;;5004575;28;20057;-85
2024/01/03 06:15:55;;;;;;;13.43;2.35;;;10.40;99.90;;;;;;5005265;28;20033;-84
2024/01/03 06:18:21;;;;;;;11.23;2.30;;;10.40;99.90;;;;;;5003483;28;20046;-85
2024/01/03 06:20:47;;;;;;;14.18;3.25;;;10.30;99.90;;;;;;5005692;28;20029;-87
2024/01/03 06:23:13;;;;;;;11.75;2.03;;;10.40;99.90;;;;;;5004097;28;20032;-85
2024/01/03 06:25:39;;;;;;;13.15;2.42;;;10.40;99.90;;;;;;5005704;28;20022;-85
2024/01/03 06:28:05;;;;;;;9.77;1.75;;;10.40;99.90;;;;;;5004760;28;20377;-85
2024/01/03 06:30:30;;;;;;;14.93;1.88;;;10.40;99.90;;;;;;5004732;28;20034;-85
2024/01/03 06:32:56;;;;;;;10.73;1.83;;;10.50;99.90;;;;;;5004727;28;20068;-85
2024/01/03 06:35:22;;;;;;;12.80;1.50;;;10.40;99.90;;;;;;5003364;28;20060;-86
2024/01/03 06:37:48;;;;;;;10.45;1.38;;;10.40;99.90;;;;;;5022810;28;20033;-85
2024/01/03 06:40:14;;;;;;;8.02;1.52;;;10.40;99.90;;;;;;5003230;28;20490;-85
2024/01/03 06:42:40;;;;;;;11.15;1.67;;;10.40;99.90;;;;;;5005249;28;20037;-85
2024/01/03 06:45:06;;;;;;;11.73;1.60;;;10.40;99.90;;;;;;5003510;28;20018;-84
2024/01/03 06:47:32;;;;;;;10.75;1.98;;;10.40;99.90;;;;;;5004137;28;20042;-85
2024/01/03 06:49:58;;;;;;;8.93;1.48;;;10.40;99.90;;;;;;5004481;28;20037;-84
2024/01/03 06:52:24;;;;;;;9.38;1.45;;;10.40;99.90;;;;;;5003432;28;20394;-84
2024/01/03 06:54:50;;;;;;;5.57;1.33;;;10.40;99.90;;;;;;5004793;28;20501;-83
2024/01/03 06:57:16;;;;;;;8.18;1.15;;;10.40;99.90;;;;;;5002941;28;20390;-83
2024/01/03 06:59:42;;;;;;;11.07;1.02;;;10.40;99.90;;;;;;5004757;28;20028;-86
2024/01/03 07:02:08;;;;;;;6.78;1.05;;;10.40;99.90;;;;;;5002832;28;20045;-85
2024/01/03 07:04:34;;;;;;;5.97;0.82;;;10.50;99.90;;;;;;5003874;28;20029;-86
2024/01/03 07:07:00;;;;;;;5.78;0.60;;;10.40;99.90;;;;;;5003944;28;20025;-85
2024/01/03 07:09:26;;;;;;;5.03;1.02;;;10.50;99.90;;;;;;5003047;28;20121;-85
2024/01/03 07:11:52;;;;;;;6.72;0.55;;;10.40;99.90;;;;;;5004380;28;20030;-84
2024/01/03 07:14:18;;;;;;;8.52;0.73;;;10.40;99.90;;;;;;5002529;28;20021;-85
2024/01/03 07:16:44;;;;;;;5.43;1.05;;;10.40;99.90;;;;;;5004496;28;20505;-85
2024/01/03 07:19:11;;;;;;;5.90;0.57;;;10.40;99.90;;;;;;5002718;28;20050;-86
2024/01/03 07:21:39;;;;;;;5.60;0.50;;;10.40;99.90;;;;;;5021502;28;20037;-87
2024/01/03 07:24:05;;;;;;;4.53;0.43;;;10.30;99.90;;;;;;5003363;28;20080;-85
2024/01/03 07:26:31;;;;;;;4.87;0.40;;;10.30;99.90;;;;;;5003190;28;20094;-86
2024/01/03 07:28:56;;;;;;;4.00;0.45;;;10.20;99.90;;;;;;5004248;28;20057;-85
2024/01/03 07:31:22;;;;;;;4.63;0.32;;;10.20;99.90;;;;;;5002043;28;20466;-85
2024/01/03 07:33:48;;;;;;;7.63;0.80;;;10.10;99.90;;;;;;5003673;28;20030;-85
2024/01/03 07:36:14;;;;;;;3.20;0.40;;;10.00;99.90;;;;;;5002223;28;20096;-84
2024/01/03 07:38:44;;;;;;;4.10;0.30;;;9.90;99.90;;;;;;5004254;28;20022;-84
2024/01/03 07:41:10;;;;;;;3.33;0.37;;;9.90;99.90;;;;;;5002987;28;20113;-84
2024/01/03 07:43:36;;;;;;;7.13;0.60;;;9.90;99.90;;;;;;5022191;28;20029;-84
2024/01/03 07:46:01;;;;;;;4.17;0.60;;;9.80;99.90;;;;;;5023113;28;20025;-83
2024/01/03 07:48:27;;;;;;;4.23;0.40;;;9.80;99.90;;;;;;5039663;28;20032;-84
2024/01/03 07:50:53;;;;;;;4.83;0.60;;;9.80;99.90;;;;;;5002106;28;20512;-83
2024/01/03 07:53:21;;;;;;;6.63;0.40;;;9.80;99.90;;;;;;5000980;28;20088;-82
2024/01/03 07:55:46;;;;;;;3.03;0.30;;;9.80;99.90;;;;;;5002727;28;20137;-84
2024/01/03 07:58:12;;;;;;;2.07;0.30;;;9.80;99.90;;;;;;5001530;28;20030;-83
2024/01/03 08:00:38;;;;;;;1.80;0.30;;;9.70;99.90;;;;;;5002549;28;20076;-84
2024/01/03 08:03:04;;;;;;;2.53;0.30;;;9.70;99.90;;;;;;5003578;28;20021;-83
2024/01/03 08:05:31;;;;;;;0.63;0.20;;;9.70;99.90;;;;;;5002056;28;20104;-84
2024/01/03 08:07:56;;;;;;;0.73;0.20;;;9.70;99.90;;;;;;5004014;28;20347;-83
2024/01/03 08:10:22;;;;;;;3.90;0.37;;;9.70;99.90;;;;;;4985316;28;20398;-84
2024/01/03 08:12:48;;;;;;;1.90;0.30;;;9.70;99.90;;;;;;5002361;28;20026;-84
2024/01/03 08:15:14;;;;;;;5.17;0.40;;;9.70;99.90;;;;;;5000910;28;20049;-84
2024/01/03 08:17:40;;;;;;;3.50;0.40;;;9.70;99.90;;;;;;5002087;28;20022;-83
2024/01/03 08:20:08;;;;;;;3.53;0.40;;;9.70;99.90;;;;;;5001677;28;20072;-83
2024/01/03 08:22:33;;;;;;;4.77;0.70;;;9.70;99.90;;;;;;5001597;28;20025;-84
2024/01/03 08:24:59;;;;;;;3.63;0.53;;;9.70;99.90;;;;;;5003022;28;20483;-83
2024/01/03 08:27:25;;;;;;;8.43;0.63;;;9.70;99.90;;;;;;5001252;28;20018;-84
2024/01/03 08:29:51;;;;;;;5.73;0.67;;;9.70;99.90;;;;;;5003372;28;20039;-84
2024/01/03 08:32:16;;;;;;;5.87;0.60;;;9.70;99.90;;;;;;5003595;28;20049;-83
2024/01/03 08:34:45;;;;;;;5.53;0.83;;;9.70;99.90;;;;;;5003907;28;20378;-83
2024/01/03 08:37:11;;;;;;;7.20;1.00;;;9.70;99.90;;;;;;5002331;28;20052;-84
2024/01/03 08:39:37;;;;;;;8.80;0.90;;;9.70;99.90;;;;;;5002228;28;20022;-83
2024/01/03 08:42:03;;;;;;;8.63;0.97;;;9.70;99.90;;;;;;5003124;28;20038;-83
2024/01/03 08:44:29;;;;;;;8.80;1.40;;;9.70;99.90;;;;;;5001227;28;20094;-83
2024/01/03 08:46:55;;;;;;;10.23;1.33;;;9.70;99.90;;;;;;5020821;28;20521;-83
2024/01/03 08:49:21;;;;;;;13.47;1.77;;;9.70;99.90;;;;;;5001477;28;20033;-83
2024/01/03 08:51:48;;;;;;;6.70;1.53;;;9.70;99.90;;;;;;5003141;28;20045;-83
2024/01/03 08:54:14;;;;;;;9.03;1.60;;;9.70;99.90;;;;;;5002259;28;20026;-83
2024/01/03 08:56:40;;;;;;;9.77;2.37;;;9.70;99.90;;;;;;5002437;28;20412;-84
2024/01/03 08:59:06;;;;;;;5.23;1.47;;;9.70;99.90;;;;;;5020524;28;20026;-83
2024/01/03 09:01:35;;;;;;;8.50;1.80;;;9.70;99.90;;;;;;4999827;28;20041;-83
2024/01/03 09:04:02;;;;;;;3.90;1.63;;;9.70;99.90;;;;;;5001841;28;20097;-84
2024/01/03 09:06:29;;;;;;;10.73;1.77;;;9.70;99.90;;;;;;4999332;28;20022;-83
2024/01/03 09:08:55;;;;;;;12.33;2.07;;;9.70;99.90;;;;;;5005568;28;20066;-84
2024/01/03 09:11:28;;;;;;;9.63;2.53;;;9.70;99.90;;;;;;5004698;28;20024;-83
2024/01/03 09:13:56;;;;;;;10.20;2.03;;;9.80;99.90;;;;;;5005109;28;20114;-84
2024/01/03 09:16:23;;;;;;;9.93;1.87;;;9.70;99.90;;;;;;5003693;28;20021;-83
2024/01/03 09:18:49;;;;;;;10.43;2.03;;;9.80;99.90;;;;;;5004221;28;20057;-83
2024/01/03 09:21:15;;;;;;;6.97;1.80;;;9.70;99.90;;;;;;5006617;28;20084;-83
2024/01/03 09:23:41;;;;;;;9.37;2.67;;;9.80;99.90;;;;;;5003567;28;20018;-83
2024/01/03 09:26:09;;;;;;;7.30;2.47;;;9.80;99.90;;;;;;5006391;28;20236;-84
2024/01/03 09:28:37;;;;;;;12.93;2.90;;;9.80;99.90;;;;;;5005234;28;20022;-84
2024/01/03 09:31:03;;;;;;;8.70;2.23;;;9.80;99.90;;;;;;5005532;28;20036;-84
2024/01/03 09:33:29;;;;;;;14.50;2.70;;;9.80;99.90;;;;;;5024108;28;20044;-84
2024/01/03 09:35:54;;;;;;;14.80;3.03;;;9.80;99.90;;;;;;5004388;28;20014;-81
2024/01/03 09:38:20;;;;;;;14.73;2.60;;;9.80;99.90;;;;;;5006277;28;20032;-84
2024/01/03 09:40:47;;;;;;;10.67;2.50;;;9.80;99.90;;;;;;5004351;28;20048;-84
2024/01/03 09:43:12;;;;;;;10.40;2.40;;;9.80;99.90;;;;;;5005802;28;20022;-85
2024/01/03 09:45:39;;;;;;;11.03;2.37;;;9.80;99.90;;;;;;5004744;28;20022;-84
2024/01/03 09:48:06;;;;;;;10.27;2.30;;;9.80;99.90;;;;;;4988498;28;20100;-84
2024/01/03 09:50:32;;;;;;;11.57;2.10;;;9.80;99.90;;;;;;5005705;28;20084;-83
2024/01/03 09:52:58;;;;;;;15.10;2.50;;;9.80;99.90;;;;;;5003910;28;20046;-84
2024/01/03 09:55:24;;;;;;;13.43;2.57;;;9.80;99.90;;;;;;5005150;28;20489;-84
2024/01/03 09:57:50;;;;;;;7.83;1.70;;;9.80;99.90;;;;;;5003639;28;20033;-83
2024/01/03 10:00:17;;;;;;;16.03;2.80;;;9.80;99.90;;;;;;5005905;28;20033;-85
2024/01/03 10:02:45;;;;;;;12.40;2.10;;;9.80;99.90;;;;;;5004468;28;20022;-85
2024/01/03 10:05:21;;;;;;;20.80;2.53;;;9.80;99.90;;;;;;5005037;28;20113;-85
2024/01/03 10:07:46;;;;;;;14.67;2.70;;;9.70;99.90;;;;;;5004601;28;20053;-85
2024/01/03 10:10:12;;;;;;;19.70;3.00;;;9.70;99.90;;;;;;5002517;28;20038;-84
2024/01/03 10:12:38;;;;;;;22.93;3.10;;;9.60;99.90;;;;;;5005582;28;20101;-87
2024/01/03 10:15:17;;;;;;;20.50;3.93;;;9.60;99.90;;;;;;5003905;28;20015;-86
2024/01/03 10:17:44;;;;;;;24.37;3.30;;;9.60;99.90;;;;;;5005124;28;20026;-84
2024/01/03 10:20:29;;;;;;;19.80;3.53;;;9.60;99.90;;;;;;5002602;28;20089;-84
2024/01/03 10:23:12;;;;;;;31.73;4.70;;;9.60;99.90;;;;;;5003790;28;20014;-85
2024/01/03 10:25:40;;;;;;;22.27;3.90;;;9.60;99.90;;;;;;5002263;28;20041;-84
2024/01/03 10:28:15;;;;;;;23.53;3.70;;;9.70;99.90;;;;;;5039109;28;20079;-85
2024/01/03 10:30:41;;;;;;;22.97;4.10;;;9.70;99.90;;;;;;5024742;28;20029;-84
2024/01/03 10:33:09;;;;;;;24.97;3.70;;;9.70;99.90;;;;;;5010129;28;20559;-84
2024/01/03 10:35:37;;;;;;;25.43;4.40;;;9.70;99.90;;;;;;5021334;28;20034;-85
2024/01/03 10:38:04;;;;;;;19.83;4.20;;;9.80;99.90;;;;;;5004890;28;20040;-84
2024/01/03 10:40:32;;;;;;;26.80;4.00;;;9.80;99.90;;;;;;5003029;28;20026;-83
2024/01/03 10:42:58;;;;;;;21.77;4.10;;;9.90;99.90;;;;;;4989090;28;20088;-84
2024/01/03 10:45:25;;;;;;;19.63;3.67;;;10.10;99.90;;;;;;5003499;28;20108;-84
2024/01/03 10:47:52;;;;;;;24.73;3.67;;;10.20;99.90;;;;;;5005226;28;20127;-84
2024/01/03 10:50:19;;;;;;;24.85;4.22;;;10.20;99.90;;;;;;5003637;28;20048;-83
2024/01/03 10:52:45;;;;;;;15.15;3.25;;;10.50;99.90;;;;;;5004473;28;20030;-84
2024/01/03 10:55:22;;;;;;;20.05;4.45;;;10.50;99.90;;;;;;5004512;28;20076;-84
2024/01/03 10:58:01;;;;;;;19.38;4.07;;;10.50;99.90;;;;;;5003090;28;20121;-83
2024/01/03 11:00:40;;;;;;;20.38;3.72;;;10.50;99.90;;;;;;5004885;28;20032;-84
2024/01/03 11:03:31;;;;;;;17.38;4.07;;;10.50;99.90;;;;;;5003259;28;20026;-82
2024/01/03 11:06:22;;;;;;;34.80;5.03;;;10.40;99.90;;;;;;5003300;28;20105;-84
2024/01/03 11:08:50;;;;;;;23.67;4.30;;;10.40;99.90;;;;;;5004513;28;20026;-84
2024/01/03 11:11:33;;;;;;;31.83;4.60;;;10.40;99.90;;;;;;5002848;28;20037;-83
2024/01/03 11:14:00;;;;;;;25.97;4.30;;;10.40;99.90;;;;;;5004095;28;20033;-84
2024/01/03 11:16:40;;;;;;;23.77;3.70;;;10.40;99.90;;;;;;5003430;28;20026;-84
2024/01/03 11:19:09;;;;;;;23.77;4.10;;;10.50;99.90;;;;;;5002415;28;20037;-84
2024/01/03 11:21:35;;;;;;;19.42;3.47;;;10.50;99.90;;;;;;5004534;28;20089;-84
2024/01/03 11:24:27;;;;;;;26.92;3.60;;;10.70;99.90;;;;;;5002531;28;20029;-83
2024/01/03 11:26:56;;;;;;;25.13;3.95;;;11.00;99.90;;;;;;4994506;28;20034;-83
2024/01/03 11:29:44;;;;;;;20.77;2.78;;;11.10;99.90;;;;;;5002813;28;20041;-82
2024/01/03 11:32:14;;;;;;;20.55;4.18;;;11.20;99.90;;;;;;5002299;28;20034;-83
2024/01/03 11:34:41;;;;;;;20.10;2.83;;;11.30;99.90;;;;;;5003532;28;20029;-83
2024/01/03 11:37:27;;;;;;;24.48;4.18;;;11.30;99.90;;;;;;5000901;28;20026;-83
2024/01/03 11:39:56;;;;;;;26.17;3.45;;;11.20;99.90;;;;;;5000596;28;20030;-83
2024/01/03 11:42:32;;;;;;;23.48;4.47;;;11.20;99.90;;;;;;5003020;28;20104;-84
2024/01/03 11:45:16;;;;;;;25.02;4.18;;;11.20;99.90;;;;;;5018066;28;20026;-83
2024/01/03 11:47:43;;;;;;;23.02;3.95;;;11.20;99.90;;;;;;5002125;28;20029;-84
2024/01/03 11:50:12;;;;;;;32.50;5.35;;;11.20;99.90;;;;;;4998823;28;20049;-82
2024/01/03 11:52:39;;;;;;;22.52;4.13;;;11.10;99.90;;;;;;5002182;28;20022;-82
2024/01/03 11:55:10;;;;;;;22.95;4.40;;;11.20;99.90;;;;;;5001623;28;20057;-84
2024/01/03 11:57:41;;;;;;;24.02;4.10;;;11.10;99.90;;;;;;4999492;28;20544;-83
2024/01/03 12:00:09;;;;;;;22.95;4.13;;;11.10;99.90;;;;;;5003437;28;20089;-83
2024/01/03 12:02:35;;;;;;;26.60;4.82;;;11.10;99.90;;;;;;4998133;28;20030;-84
2024/01/03 12:05:01;;;;;;;25.25;5.40;;;11.10;99.90;;;;;;5008703;28;20017;-85
2024/01/03 12:07:30;;;;;;;30.48;4.75;;;11.10;99.90;;;;;;5021435;28;20104;-84
2024/01/03 12:09:57;;;;;;;25.00;3.78;;;11.20;99.90;;;;;;5022304;28;20099;-84
2024/01/03 12:12:23;;;;;;;21.17;3.67;;;11.40;99.90;;;;;;5001336;28;20076;-84
2024/01/03 12:14:51;;;;;;;20.85;3.72;;;11.50;99.90;;;;;;5000532;28;20089;-84
2024/01/03 12:17:34;;;;;;;20.63;3.20;;;11.70;99.90;;;;;;5002889;28;20014;-84
2024/01/03 12:20:10;;;;;;;20.45;4.20;;;11.90;99.90;;;;;;5000524;28;20022;-85
2024/01/03 12:22:36;;;;;;;22.85;3.45;;;12.40;99.90;;;;;;5012486;22;21614;-84
2024/01/03 12:25:02;;;;;;;20.35;3.25;;;12.70;99.90;;;;;;4973855;28;20490;-87
2024/01/03 12:27:31;;;;;;;14.52;2.67;;;12.90;99.90;;;;;;4993249;28;20470;-81
2024/01/03 12:30:14;;;;;;;12.07;2.33;;;12.90;99.90;;;;;;4993174;28;20030;-77
2024/01/03 12:32:39;;;;;;;15.52;2.97;;;13.10;99.90;;;;;;5000679;22;20538;-84
2024/01/03 12:35:05;;;;;;;13.23;2.22;;;13.10;99.90;;;;;;5000134;28;20030;-83
2024/01/03 12:37:31;;;;;;;16.30;2.42;;;13.10;99.90;;;;;;4998025;28;20053;-85
2024/01/03 12:39:57;;;;;;;16.02;2.83;;;13.20;99.90;;;;;;4995441;28;20022;-87
2024/01/03 12:42:22;;;;;;;11.57;1.92;;;13.40;99.90;;;;;;5014709;28;20080;-85